sensor_id;sensor_type;location;lat;lon;timestamp;temperature;humidity
21035;DHT22;10676;50.848;3.272;2023-01-15T00:01:02;8.90;99.90
21035;DHT22;10676;50.848;3.272;2023-01-15T00:03:29;8.80;99.90
21035;DHT22;10676;50.848;3.272;2023-01-15T00:05:55;8.80;99.90
21035;DHT22;10676;50.848;3.272;2023-01-15T00:08:21;8.80;99.90
21035;DHT22;10676;50.848;3.272;2023-01-15T00:10:47;8.80;99.90
21035;DHT22;10676;50.848;3.272;2023-01-15T00:13:12;8.80;99.90
21035;DHT22;10676;50.848;3.272;2023-01-15T00:15:38;8.70;99.90
21035;DHT22;10676;50.848;3.272;2023-01-15T00:18:04;8.70;99.90
21035;DHT22;10676;50.848;3.272;2023-01-15T00:20:30;8.70;99.90
21035;DHT22;10676;50.848;3.272;2023-01-15T00:22:55;8.70;99.90
21035;DHT22;10676;50.848;3.272;2023-01-15T00:25:21;8.70;99.90
21035;DHT22;10676;50.848;3.272;2023-01-15T00:28:06;8.70;99.90
21035;DHT22;10676;50.848;3.272;2023-01-15T00:30:31;8.70;99.90
21035;DHT22;10676;50.848;3.272;2023-01-15T00:32:57;8.60;99.90
21035;DHT22;10676;50.848;3.272;2023-01-15T00:35:24;8.60;99.90
21035;DHT22;10676;50.848;3.272;2023-01-15T00:37:50;8.60;99.90
21035;DHT22;10676;50.848;3.272;2023-01-15T00:40:18;8.60;99.90
21035;DHT22;10676;50.848;3.272;2023-01-15T00:42:44;8.50;99.90
21035;DHT22;10676;50.848;3.272;2023-01-15T00:45:10;8.50;99.90
21035;DHT22;10676;50.848;3.272;2023-01-15T00:47:41;8.50;99.90
21035;DHT22;10676;50.848;3.272;2023-01-15T00:50:10;8.50;99.90
21035;DHT22;10676;50.848;3.272;2023-01-15T00:52:36;8.50;99.90
21035;DHT22;10676;50.848;3.272;2023-01-15T00:55:02;8.50;99.90
21035;DHT22;10676;50.848;3.272;2023-01-15T00:57:28;8.50;99.90
21035;DHT22;10676;50.848;3.272;2023-01-15T00:59:53;8.40;99.90
21035;DHT22;10676;50.848;3.272;2023-01-15T01:02:19;8.40;99.90
21035;DHT22;10676;50.848;3.272;2023-01-15T01:04:45;8.40;99.90
21035;DHT22;10676;50.848;3.272;2023-01-15T01:07:11;8.40;99.90
21035;DHT22;10676;50.848;3.272;2023-01-15T01:09:37;8.40;99.90
21035;DHT22;10676;50.848;3.272;2023-01-15T01:12:03;8.30;99.90
21035;DHT22;10676;50.848;3.272;2023-01-15T01:14:29;8.30;99.90
21035;DHT22;10676;50.848;3.272;2023-01-15T01:16:54;8.30;99.90
21035;DHT22;10676;50.848;3.272;2023-01-15T01:19:22;8.30;99.90
21035;DHT22;10676;50.848;3.272;2023-01-15T01:21:48;8.30;99.90
21035;DHT22;10676;50.848;3.272;2023-01-15T01:24:17;8.30;99.90
21035;DHT22;10676;50.848;3.272;2023-01-15T01:26:44;8.30;99.90
21035;DHT22;10676;50.848;3.272;2023-01-15T01:29:19;8.30;99.90
21035;DHT22;10676;50.848;3.272;2023-01-15T01:31:45;8.20;99.90
21035;DHT22;10676;50.848;3.272;2023-01-15T01:34:12;8.20;99.90
21035;DHT22;10676;50.848;3.272;2023-01-15T01:36:40;8.20;99.90
21035;DHT22;10676;50.848;3.272;2023-01-15T01:39:08;8.20;99.90
21035;DHT22;10676;50.848;3.272;2023-01-15T01:41:35;8.20;99.90
21035;DHT22;10676;50.848;3.272;2023-01-15T01:44:07;8.20;99.90
21035;DHT22;10676;50.848;3.272;2023-01-15T01:46:51;8.20;99.90
21035;DHT22;10676;50.848;3.272;2023-01-15T01:49:17;8.20;99.90
21035;DHT22;10676;50.848;3.272;2023-01-15T01:52:06;8.10;99.90
21035;DHT22;10676;50.848;3.272;2023-01-15T01:54:34;8.10;99.90
21035;DHT22;10676;50.848;3.272;2023-01-15T01:57:01;8.10;99.90
21035;DHT22;10676;50.848;3.272;2023-01-15T01:59:28;8.10;99.90
21035;DHT22;10676;50.848;3.272;2023-01-15T02:01:54;8.10;99.90
21035;DHT22;10676;50.848;3.272;2023-01-15T02:04:21;8.10;99.90
21035;DHT22;10676;50.848;3.272;2023-01-15T02:06:50;8.10;99.90
21035;DHT22;10676;50.848;3.272;2023-01-15T02:09:16;8.10;99.90
21035;DHT22;10676;50.848;3.272;2023-01-15T02:11:42;8.10;99.90
21035;DHT22;10676;50.848;3.272;2023-01-15T02:16:42;8.10;99.90
21035;DHT22;10676;50.848;3.272;2023-01-15T02:19:48;8.10;99.90
21035;DHT22;10676;50.848;3.272;2023-01-15T02:29:05;8.00;99.90
21035;DHT22;10676;50.848;3.272;2023-01-15T02:31:11;8.00;99.90
21035;DHT22;10676;50.848;3.272;2023-01-15T02:33:50;8.00;99.90
21035;DHT22;10676;50.848;3.272;2023-01-15T02:36:21;7.90;99.90
21035;DHT22;10676;50.848;3.272;2023-01-15T02:38:49;7.90;99.90
21035;DHT22;10676;50.848;3.272;2023-01-15T02:41:18;7.90;99.90
21035;DHT22;10676;50.848;3.272;2023-01-15T02:43:47;7.80;99.90
21035;DHT22;10676;50.848;3.272;2023-01-15T02:46:15;7.80;99.90
21035;DHT22;10676;50.848;3.272;2023-01-15T02:48:45;7.70;99.90
21035;DHT22;10676;50.848;3.272;2023-01-15T02:51:19;7.80;99.90
21035;DHT22;10676;50.848;3.272;2023-01-15T02:53:48;7.70;99.90
21035;DHT22;10676;50.848;3.272;2023-01-15T02:56:18;7.70;99.90
21035;DHT22;10676;50.848;3.272;2023-01-15T02:58:46;7.70;99.90
21035;DHT22;10676;50.848;3.272;2023-01-15T03:01:17;7.70;99.90
21035;DHT22;10676;50.848;3.272;2023-01-15T03:04:29;7.70;99.90
21035;DHT22;10676;50.848;3.272;2023-01-15T03:07:06;7.70;99.90
21035;DHT22;10676;50.848;3.272;2023-01-15T03:09:34;7.70;99.90
21035;DHT22;10676;50.848;3.272;2023-01-15T03:17:56;7.70;99.90
21035;DHT22;10676;50.848;3.272;2023-01-15T03:20:24;7.70;99.90
21035;DHT22;10676;50.848;3.272;2023-01-15T03:22:53;7.60;99.90
21035;DHT22;10676;50.848;3.272;2023-01-15T03:25:25;7.60;99.90
21035;DHT22;10676;50.848;3.272;2023-01-15T03:27:53;7.50;99.90
21035;DHT22;10676;50.848;3.272;2023-01-15T03:30:22;7.50;99.90
21035;DHT22;10676;50.848;3.272;2023-01-15T03:32:48;7.40;99.90
21035;DHT22;10676;50.848;3.272;2023-01-15T03:35:53;7.40;99.90
21035;DHT22;10676;50.848;3.272;2023-01-15T03:38:24;7.30;99.90
21035;DHT22;10676;50.848;3.272;2023-01-15T03:40:52;7.20;99.90
21035;DHT22;10676;50.848;3.272;2023-01-15T03:46:41;7.20;99.90
21035;DHT22;10676;50.848;3.272;2023-01-15T03:52:23;7.20;99.90
21035;DHT22;10676;50.848;3.272;2023-01-15T04:00:06;7.20;99.90
21035;DHT22;10676;50.848;3.272;2023-01-15T04:02:35;7.30;99.90
21035;DHT22;10676;50.848;3.272;2023-01-15T04:05:03;7.30;99.90
21035;DHT22;10676;50.848;3.272;2023-01-15T04:07:29;7.40;99.90
21035;DHT22;10676;50.848;3.272;2023-01-15T04:09:56;7.40;99.90
21035;DHT22;10676;50.848;3.272;2023-01-15T04:12:21;7.40;99.90
21035;DHT22;10676;50.848;3.272;2023-01-15T04:14:47;7.50;99.90
21035;DHT22;10676;50.848;3.272;2023-01-15T04:17:13;7.60;99.90
21035;DHT22;10676;50.848;3.272;2023-01-15T04:19:39;7.60;99.90
21035;DHT22;10676;50.848;3.272;2023-01-15T04:22:04;7.60;99.90
21035;DHT22;10676;50.848;3.272;2023-01-15T04:24:30;7.70;99.90
21035;DHT22;10676;50.848;3.272;2023-01-15T04:26:56;7.70;99.90
21035;DHT22;10676;50.848;3.272;2023-01-15T04:29:21;7.70;99.90
21035;DHT22;10676;50.848;3.272;2023-01-15T04:31:47;7.70;99.90
21035;DHT22;10676;50.848;3.272;2023-01-15T04:34:13;7.70;99.90
21035;DHT22;10676;50.848;3.272;2023-01-15T04:36:38;7.60;99.90
21035;DHT22;10676;50.848;3.272;2023-01-15T04:39:05;7.60;99.90
21035;DHT22;10676;50.848;3.272;2023-01-15T04:41:30;7.60;99.90
21035;DHT22;10676;50.848;3.272;2023-01-15T04:44:14;7.50;99.90
21035;DHT22;10676;50.848;3.272;2023-01-15T04:46:42;7.50;99.90
21035;DHT22;10676;50.848;3.272;2023-01-15T04:49:11;7.40;99.90
21035;DHT22;10676;50.848;3.272;2023-01-15T04:51:37;7.40;99.90
21035;DHT22;10676;50.848;3.272;2023-01-15T04:54:06;7.40;99.90
21035;DHT22;10676;50.848;3.272;2023-01-15T04:56:38;7.40;99.90
21035;DHT22;10676;50.848;3.272;2023-01-15T04:59:04;7.40;99.90
21035;DHT22;10676;50.848;3.272;2023-01-15T05:01:29;7.30;99.90
21035;DHT22;10676;50.848;3.272;2023-01-15T05:03:55;7.20;99.90
21035;DHT22;10676;50.848;3.272;2023-01-15T05:06:23;7.10;99.90
21035;DHT22;10676;50.848;3.272;2023-01-15T05:08:49;6.90;99.90
21035;DHT22;10676;50.848;3.272;2023-01-15T05:11:14;6.80;99.90
21035;DHT22;10676;50.848;3.272;2023-01-15T05:13:40;6.60;99.90
21035;DHT22;10676;50.848;3.272;2023-01-15T05:16:11;6.50;99.90
21035;DHT22;10676;50.848;3.272;2023-01-15T05:18:37;6.40;99.90
21035;DHT22;10676;50.848;3.272;2023-01-15T05:21:03;6.30;99.90
21035;DHT22;10676;50.848;3.272;2023-01-15T05:23:29;6.20;99.90
21035;DHT22;10676;50.848;3.272;2023-01-15T05:25:54;6.10;99.90
21035;DHT22;10676;50.848;3.272;2023-01-15T05:28:20;6.10;99.90
21035;DHT22;10676;50.848;3.272;2023-01-15T05:30:46;6.00;99.90
21035;DHT22;10676;50.848;3.272;2023-01-15T05:33:11;5.90;99.90
21035;DHT22;10676;50.848;3.272;2023-01-15T05:35:37;5.90;99.90
21035;DHT22;10676;50.848;3.272;2023-01-15T05:38:02;5.80;99.90
21035;DHT22;10676;50.848;3.272;2023-01-15T05:40:31;5.70;99.90
21035;DHT22;10676;50.848;3.272;2023-01-15T05:42:57;5.70;99.90
21035;DHT22;10676;50.848;3.272;2023-01-15T05:45:22;5.70;99.90
21035;DHT22;10676;50.848;3.272;2023-01-15T05:47:48;5.60;99.90
21035;DHT22;10676;50.848;3.272;2023-01-15T05:50:14;5.60;99.90
21035;DHT22;10676;50.848;3.272;2023-01-15T05:52:39;5.60;99.90
21035;DHT22;10676;50.848;3.272;2023-01-15T05:55:05;5.60;99.90
21035;DHT22;10676;50.848;3.272;2023-01-15T05:57:31;5.50;99.90
21035;DHT22;10676;50.848;3.272;2023-01-15T05:59:57;5.40;99.90
21035;DHT22;10676;50.848;3.272;2023-01-15T06:02:23;5.40;99.90
21035;DHT22;10676;50.848;3.272;2023-01-15T06:04:49;5.40;99.90
21035;DHT22;10676;50.848;3.272;2023-01-15T06:07:14;5.30;99.90
21035;DHT22;10676;50.848;3.272;2023-01-15T06:09:43;5.30;99.90
21035;DHT22;10676;50.848;3.272;2023-01-15T06:12:08;5.20;99.90
21035;DHT22;10676;50.848;3.272;2023-01-15T06:14:34;5.20;99.90
21035;DHT22;10676;50.848;3.272;2023-01-15T06:17:00;5.20;99.90
21035;DHT22;10676;50.848;3.272;2023-01-15T06:19:25;5.10;99.90
21035;DHT22;10676;50.848;3.272;2023-01-15T06:21:51;5.10;99.90
21035;DHT22;10676;50.848;3.272;2023-01-15T06:24:17;5.10;99.90
21035;DHT22;10676;50.848;3.272;2023-01-15T06:26:44;5.00;99.90
21035;DHT22;10676;50.848;3.272;2023-01-15T06:29:10;4.90;99.90
21035;DHT22;10676;50.848;3.272;2023-01-15T06:31:36;4.90;99.90
21035;DHT22;10676;50.848;3.272;2023-01-15T06:34:02;4.90;99.90
21035;DHT22;10676;50.848;3.272;2023-01-15T06:36:28;4.80;99.90
21035;DHT22;10676;50.848;3.272;2023-01-15T06:38:54;4.80;99.90
21035;DHT22;10676;50.848;3.272;2023-01-15T06:41:22;4.80;99.90
21035;DHT22;10676;50.848;3.272;2023-01-15T06:44:12;4.70;99.90
21035;DHT22;10676;50.848;3.272;2023-01-15T06:46:56;4.70;99.90
21035;DHT22;10676;50.848;3.272;2023-01-15T06:49:40;4.70;99.90
21035;DHT22;10676;50.848;3.272;2023-01-15T06:52:06;4.70;99.90
21035;DHT22;10676;50.848;3.272;2023-01-15T06:54:32;4.70;99.90
21035;DHT22;10676;50.848;3.272;2023-01-15T06:56:57;4.70;99.90
21035;DHT22;10676;50.848;3.272;2023-01-15T06:59:23;4.70;99.90
21035;DHT22;10676;50.848;3.272;2023-01-15T07:01:49;4.70;99.90
21035;DHT22;10676;50.848;3.272;2023-01-15T07:04:15;4.70;99.90
21035;DHT22;10676;50.848;3.272;2023-01-15T07:06:41;4.70;99.90
21035;DHT22;10676;50.848;3.272;2023-01-15T07:09:06;4.70;99.90
21035;DHT22;10676;50.848;3.272;2023-01-15T07:11:32;4.70;99.90
21035;DHT22;10676;50.848;3.272;2023-01-15T07:13:58;4.70;99.90
21035;DHT22;10676;50.848;3.272;2023-01-15T07:16:33;4.70;99.90
21035;DHT22;10676;50.848;3.272;2023-01-15T07:18:59;4.70;99.90
21035;DHT22;10676;50.848;3.272;2023-01-15T07:21:26;4.70;99.90
21035;DHT22;10676;50.848;3.272;2023-01-15T07:23:52;4.70;99.90
21035;DHT22;10676;50.848;3.272;2023-01-15T07:26:17;4.70;99.90
21035;DHT22;10676;50.848;3.272;2023-01-15T07:28:43;4.70;99.90
21035;DHT22;10676;50.848;3.272;2023-01-15T07:31:09;4.70;99.90
21035;DHT22;10676;50.848;3.272;2023-01-15T07:33:34;4.70;99.90
21035;DHT22;10676;50.848;3.272;2023-01-15T07:36:04;4.70;99.90
21035;DHT22;10676;50.848;3.272;2023-01-15T07:38:30;4.80;99.90
21035;DHT22;10676;50.848;3.272;2023-01-15T07:40:56;4.80;99.90
21035;DHT22;10676;50.848;3.272;2023-01-15T07:43:41;4.80;99.90
21035;DHT22;10676;50.848;3.272;2023-01-15T07:46:25;4.90;99.90
21035;DHT22;10676;50.848;3.272;2023-01-15T07:49:13;4.90;99.90
21035;DHT22;10676;50.848;3.272;2023-01-15T07:51:57;5.00;99.90
21035;DHT22;10676;50.848;3.272;2023-01-15T07:54:23;5.00;99.90
21035;DHT22;10676;50.848;3.272;2023-01-15T07:56:50;5.00;99.90
21035;DHT22;10676;50.848;3.272;2023-01-15T07:59:16;5.10;99.90
21035;DHT22;10676;50.848;3.272;2023-01-15T08:01:42;5.10;99.90
21035;DHT22;10676;50.848;3.272;2023-01-15T08:04:07;5.20;99.90
21035;DHT22;10676;50.848;3.272;2023-01-15T08:06:34;5.20;99.90
21035;DHT22;10676;50.848;3.272;2023-01-15T08:09:00;5.20;99.90
21035;DHT22;10676;50.848;3.272;2023-01-15T08:11:26;5.30;99.90
21035;DHT22;10676;50.848;3.272;2023-01-15T08:14:11;5.30;99.90
21035;DHT22;10676;50.848;3.272;2023-01-15T08:16:55;5.40;99.90
21035;DHT22;10676;50.848;3.272;2023-01-15T08:19:21;5.50;99.90
21035;DHT22;10676;50.848;3.272;2023-01-15T08:21:49;5.50;99.90
21035;DHT22;10676;50.848;3.272;2023-01-15T08:24:15;5.60;99.90
21035;DHT22;10676;50.848;3.272;2023-01-15T08:26:41;5.70;99.90
21035;DHT22;10676;50.848;3.272;2023-01-15T08:29:07;5.70;99.90
21035;DHT22;10676;50.848;3.272;2023-01-15T08:31:32;5.80;99.90
21035;DHT22;10676;50.848;3.272;2023-01-15T08:33:58;5.90;99.90
21035;DHT22;10676;50.848;3.272;2023-01-15T08:36:24;6.00;99.90
21035;DHT22;10676;50.848;3.272;2023-01-15T08:38:50;6.00;99.90
21035;DHT22;10676;50.848;3.272;2023-01-15T08:41:16;6.10;99.90
21035;DHT22;10676;50.848;3.272;2023-01-15T08:43:41;6.20;99.90
21035;DHT22;10676;50.848;3.272;2023-01-15T08:46:08;6.20;99.90
21035;DHT22;10676;50.848;3.272;2023-01-15T08:48:34;6.30;99.90
21035;DHT22;10676;50.848;3.272;2023-01-15T08:51:08;6.40;99.90
21035;DHT22;10676;50.848;3.272;2023-01-15T08:53:35;6.40;99.90
21035;DHT22;10676;50.848;3.272;2023-01-15T08:56:00;6.50;99.90
21035;DHT22;10676;50.848;3.272;2023-01-15T08:58:31;6.50;99.90
21035;DHT22;10676;50.848;3.272;2023-01-15T09:01:07;6.50;99.90
21035;DHT22;10676;50.848;3.272;2023-01-15T09:03:33;6.30;99.90
21035;DHT22;10676;50.848;3.272;2023-01-15T09:06:00;6.20;99.90
21035;DHT22;10676;50.848;3.272;2023-01-15T09:08:27;6.00;99.90
21035;DHT22;10676;50.848;3.272;2023-01-15T09:11:00;5.90;99.90
21035;DHT22;10676;50.848;3.272;2023-01-15T09:13:28;5.70;99.90
21035;DHT22;10676;50.848;3.272;2023-01-15T09:15:57;5.60;99.90
21035;DHT22;10676;50.848;3.272;2023-01-15T09:18:23;5.40;99.90
21035;DHT22;10676;50.848;3.272;2023-01-15T09:20:48;5.30;99.90
21035;DHT22;10676;50.848;3.272;2023-01-15T09:23:15;5.30;99.90
21035;DHT22;10676;50.848;3.272;2023-01-15T09:25:59;5.20;99.90
21035;DHT22;10676;50.848;3.272;2023-01-15T09:28:27;5.20;99.90
21035;DHT22;10676;50.848;3.272;2023-01-15T09:30:53;5.20;99.90
21035;DHT22;10676;50.848;3.272;2023-01-15T09:33:19;5.20;99.90
21035;DHT22;10676;50.848;3.272;2023-01-15T09:35:45;5.20;99.90
21035;DHT22;10676;50.848;3.272;2023-01-15T09:38:12;5.20;99.90
21035;DHT22;10676;50.848;3.272;2023-01-15T09:40:51;5.30;99.90
21035;DHT22;10676;50.848;3.272;2023-01-15T09:43:40;5.40;99.90
21035;DHT22;10676;50.848;3.272;2023-01-15T09:46:14;5.60;99.90
21035;DHT22;10676;50.848;3.272;2023-01-15T09:48:58;5.80;99.90
21035;DHT22;10676;50.848;3.272;2023-01-15T09:54:20;6.70;99.90
21035;DHT22;10676;50.848;3.272;2023-01-15T09:56:50;7.60;99.90
21035;DHT22;10676;50.848;3.272;2023-01-15T09:59:21;8.30;99.90
21035;DHT22;10676;50.848;3.272;2023-01-15T10:01:51;8.70;99.90
21035;DHT22;10676;50.848;3.272;2023-01-15T10:04:38;9.00;99.90
21035;DHT22;10676;50.848;3.272;2023-01-15T10:07:26;9.40;99.90
21035;DHT22;10676;50.848;3.272;2023-01-15T10:10:02;9.80;99.90
21035;DHT22;10676;50.848;3.272;2023-01-15T10:12:29;10.20;99.90
21035;DHT22;10676;50.848;3.272;2023-01-15T10:17:46;10.30;99.90
21035;DHT22;10676;50.848;3.272;2023-01-15T10:25:20;9.70;99.90
21035;DHT22;10676;50.848;3.272;2023-01-15T10:27:50;9.40;99.90
21035;DHT22;10676;50.848;3.272;2023-01-15T10:30:39;9.00;99.90
21035;DHT22;10676;50.848;3.272;2023-01-15T10:36:29;8.40;99.90
21035;DHT22;10676;50.848;3.272;2023-01-15T10:39:03;8.10;99.90
21035;DHT22;10676;50.848;3.272;2023-01-15T10:47:47;7.50;99.90
21035;DHT22;10676;50.848;3.272;2023-01-15T10:50:22;7.50;99.90
21035;DHT22;10676;50.848;3.272;2023-01-15T10:55:50;7.80;99.90
21035;DHT22;10676;50.848;3.272;2023-01-15T10:58:33;8.20;99.90
21035;DHT22;10676;50.848;3.272;2023-01-15T11:01:05;8.50;99.90
21035;DHT22;10676;50.848;3.272;2023-01-15T11:03:42;8.60;99.90
21035;DHT22;10676;50.848;3.272;2023-01-15T11:06:20;8.70;99.90
21035;DHT22;10676;50.848;3.272;2023-01-15T11:08:51;8.70;99.90
21035;DHT22;10676;50.848;3.272;2023-01-15T11:11:24;8.70;99.90
21035;DHT22;10676;50.848;3.272;2023-01-15T11:14:10;8.70;99.90
21035;DHT22;10676;50.848;3.272;2023-01-15T11:16:54;8.60;99.90
21035;DHT22;10676;50.848;3.272;2023-01-15T11:19:37;8.40;99.90
21035;DHT22;10676;50.848;3.272;2023-01-15T11:22:16;8.30;99.90
21035;DHT22;10676;50.848;3.272;2023-01-15T11:27:22;7.90;99.90
21035;DHT22;10676;50.848;3.272;2023-01-15T11:29:57;7.80;99.90
21035;DHT22;10676;50.848;3.272;2023-01-15T11:32:36;7.60;99.90
21035;DHT22;10676;50.848;3.272;2023-01-15T11:35:14;7.60;99.90
21035;DHT22;10676;50.848;3.272;2023-01-15T11:37:40;7.70;99.90
21035;DHT22;10676;50.848;3.272;2023-01-15T11:40:19;7.80;99.90
21035;DHT22;10676;50.848;3.272;2023-01-15T11:42:50;7.90;99.90
21035;DHT22;10676;50.848;3.272;2023-01-15T11:45:51;7.90;99.90
21035;DHT22;10676;50.848;3.272;2023-01-15T11:48:46;7.90;99.90
21035;DHT22;10676;50.848;3.272;2023-01-15T11:51:37;7.90;99.90
21035;DHT22;10676;50.848;3.272;2023-01-15T11:54:10;8.10;99.90
21035;DHT22;10676;50.848;3.272;2023-01-15T11:56:41;8.50;99.90
21035;DHT22;10676;50.848;3.272;2023-01-15T11:59:17;9.00;99.90
21035;DHT22;10676;50.848;3.272;2023-01-15T12:01:51;9.20;99.90
21035;DHT22;10676;50.848;3.272;2023-01-15T12:04:40;9.30;99.90
21035;DHT22;10676;50.848;3.272;2023-01-15T12:07:14;9.50;99.90
21035;DHT22;10676;50.848;3.272;2023-01-15T12:12:30;9.70;99.90
21035;DHT22;10676;50.848;3.272;2023-01-15T12:26:23;9.50;99.90
21035;DHT22;10676;50.848;3.272;2023-01-15T12:29:01;9.60;99.90
21035;DHT22;10676;50.848;3.272;2023-01-15T12:31:42;9.40;99.90
21035;DHT22;10676;50.848;3.272;2023-01-15T12:36:58;9.00;99.90
21035;DHT22;10676;50.848;3.272;2023-01-15T12:39:51;8.90;99.90
21035;DHT22;10676;50.848;3.272;2023-01-15T12:42:21;8.80;99.90
21035;DHT22;10676;50.848;3.272;2023-01-15T12:45:14;8.80;99.90
21035;DHT22;10676;50.848;3.272;2023-01-15T12:53:18;8.70;99.90
21035;DHT22;10676;50.848;3.272;2023-01-15T13:07:03;7.70;99.90
21035;DHT22;10676;50.848;3.272;2023-01-15T13:09:51;7.60;99.90
21035;DHT22;10676;50.848;3.272;2023-01-15T13:12:18;7.50;99.90
21035;DHT22;10676;50.848;3.272;2023-01-15T13:14:44;7.60;99.90
21035;DHT22;10676;50.848;3.272;2023-01-15T13:17:22;7.60;99.90
21035;DHT22;10676;50.848;3.272;2023-01-15T13:20:31;7.40;99.90
21035;DHT22;10676;50.848;3.272;2023-01-15T13:28:31;7.00;99.90
21035;DHT22;10676;50.848;3.272;2023-01-15T13:34:42;6.90;99.90
21035;DHT22;10676;50.848;3.272;2023-01-15T13:37:28;6.70;99.90
21035;DHT22;10676;50.848;3.272;2023-01-15T13:40:48;6.70;99.90
21035;DHT22;10676;50.848;3.272;2023-01-15T13:42:48;6.60;99.90
21035;DHT22;10676;50.848;3.272;2023-01-15T13:45:21;6.70;99.90
21035;DHT22;10676;50.848;3.272;2023-01-15T13:47:54;6.70;99.90
21035;DHT22;10676;50.848;3.272;2023-01-15T13:50:30;6.80;99.90
21035;DHT22;10676;50.848;3.272;2023-01-15T13:55:59;6.80;99.90
21035;DHT22;10676;50.848;3.272;2023-01-15T13:58:53;6.80;99.90
21035;DHT22;10676;50.848;3.272;2023-01-15T14:04:01;6.80;99.90
21035;DHT22;10676;50.848;3.272;2023-01-15T14:09:32;6.90;99.90
21035;DHT22;10676;50.848;3.272;2023-01-15T14:26:04;7.00;99.90
21035;DHT22;10676;50.848;3.272;2023-01-15T14:36:15;6.80;99.90
21035;DHT22;10676;50.848;3.272;2023-01-15T14:38:47;6.80;99.90
21035;DHT22;10676;50.848;3.272;2023-01-15T14:41:14;6.70;99.90
21035;DHT22;10676;50.848;3.272;2023-01-15T14:43:47;6.50;99.90
21035;DHT22;10676;50.848;3.272;2023-01-15T14:48:54;6.40;99.90
21035;DHT22;10676;50.848;3.272;2023-01-15T14:51:29;6.40;99.90
21035;DHT22;10676;50.848;3.272;2023-01-15T14:54:06;6.30;99.90
21035;DHT22;10676;50.848;3.272;2023-01-15T14:56:39;6.20;99.90
21035;DHT22;10676;50.848;3.272;2023-01-15T15:01:44;6.10;99.90
21035;DHT22;10676;50.848;3.272;2023-01-15T15:07:19;6.00;99.90
21035;DHT22;10676;50.848;3.272;2023-01-15T15:18:01;5.80;99.90
21035;DHT22;10676;50.848;3.272;2023-01-15T15:23:29;5.60;99.90
21035;DHT22;10676;50.848;3.272;2023-01-15T15:25:57;5.60;99.90
21035;DHT22;10676;50.848;3.272;2023-01-15T15:28:23;5.60;99.90
21035;DHT22;10676;50.848;3.272;2023-01-15T15:30:49;5.60;99.90
21035;DHT22;10676;50.848;3.272;2023-01-15T15:33:17;5.60;99.90
21035;DHT22;10676;50.848;3.272;2023-01-15T15:35:48;5.60;99.90
21035;DHT22;10676;50.848;3.272;2023-01-15T15:38:17;5.50;99.90
21035;DHT22;10676;50.848;3.272;2023-01-15T15:40:47;5.50;99.90
21035;DHT22;10676;50.848;3.272;2023-01-15T15:43:41;5.50;99.90
21035;DHT22;10676;50.848;3.272;2023-01-15T15:46:29;5.40;99.90
21035;DHT22;10676;50.848;3.272;2023-01-15T15:49:13;5.40;99.90
21035;DHT22;10676;50.848;3.272;2023-01-15T15:54:20;5.30;99.90
21035;DHT22;10676;50.848;3.272;2023-01-15T15:59:35;5.30;99.90
21035;DHT22;10676;50.848;3.272;2023-01-15T16:02:28;5.30;99.90
21035;DHT22;10676;50.848;3.272;2023-01-15T16:04:59;5.30;99.90
21035;DHT22;10676;50.848;3.272;2023-01-15T16:07:27;5.40;99.90
21035;DHT22;10676;50.848;3.272;2023-01-15T16:09:59;5.40;99.90
21035;DHT22;10676;50.848;3.272;2023-01-15T16:12:30;5.40;99.90
21035;DHT22;10676;50.848;3.272;2023-01-15T16:14:58;5.40;99.90
21035;DHT22;10676;50.848;3.272;2023-01-15T16:17:24;5.40;99.90
21035;DHT22;10676;50.848;3.272;2023-01-15T16:19:55;5.50;99.90
21035;DHT22;10676;50.848;3.272;2023-01-15T16:22:21;5.50;99.90
21035;DHT22;10676;50.848;3.272;2023-01-15T16:24:57;5.60;99.90
21035;DHT22;10676;50.848;3.272;2023-01-15T16:27:27;5.70;99.90
21035;DHT22;10676;50.848;3.272;2023-01-15T16:29:54;5.70;99.90
21035;DHT22;10676;50.848;3.272;2023-01-15T16:32:24;5.70;99.90
21035;DHT22;10676;50.848;3.272;2023-01-15T16:35:06;5.70;99.90
21035;DHT22;10676;50.848;3.272;2023-01-15T16:37:32;5.70;99.90
21035;DHT22;10676;50.848;3.272;2023-01-15T16:40:02;5.70;99.90
21035;DHT22;10676;50.848;3.272;2023-01-15T16:42:38;5.70;99.90
21035;DHT22;10676;50.848;3.272;2023-01-15T16:45:19;5.70;99.90
21035;DHT22;10676;50.848;3.272;2023-01-15T16:48:10;5.70;99.90
21035;DHT22;10676;50.848;3.272;2023-01-15T16:50:38;5.80;99.90
21035;DHT22;10676;50.848;3.272;2023-01-15T16:53:05;5.80;99.90
21035;DHT22;10676;50.848;3.272;2023-01-15T16:55:50;5.90;99.90
21035;DHT22;10676;50.848;3.272;2023-01-15T16:58:21;6.00;99.90
21035;DHT22;10676;50.848;3.272;2023-01-15T17:00:56;6.00;99.90
21035;DHT22;10676;50.848;3.272;2023-01-15T17:03:24;6.10;99.90
21035;DHT22;10676;50.848;3.272;2023-01-15T17:06:01;6.10;99.90
21035;DHT22;10676;50.848;3.272;2023-01-15T17:08:36;6.20;99.90
21035;DHT22;10676;50.848;3.272;2023-01-15T17:11:15;6.20;99.90
21035;DHT22;10676;50.848;3.272;2023-01-15T17:13:42;6.20;99.90
21035;DHT22;10676;50.848;3.272;2023-01-15T17:16:18;6.20;99.90
21035;DHT22;10676;50.848;3.272;2023-01-15T17:18:46;6.20;99.90
21035;DHT22;10676;50.848;3.272;2023-01-15T17:21:22;6.20;99.90
21035;DHT22;10676;50.848;3.272;2023-01-15T17:23:54;6.10;99.90
21035;DHT22;10676;50.848;3.272;2023-01-15T17:26:22;6.00;99.90
21035;DHT22;10676;50.848;3.272;2023-01-15T17:28:49;6.00;99.90
21035;DHT22;10676;50.848;3.272;2023-01-15T17:31:28;6.10;99.90
21035;DHT22;10676;50.848;3.272;2023-01-15T17:33:55;6.10;99.90
21035;DHT22;10676;50.848;3.272;2023-01-15T17:36:22;6.10;99.90
21035;DHT22;10676;50.848;3.272;2023-01-15T17:38:48;6.10;99.90
21035;DHT22;10676;50.848;3.272;2023-01-15T17:41:15;6.20;99.90
21035;DHT22;10676;50.848;3.272;2023-01-15T17:43:41;6.20;99.90
21035;DHT22;10676;50.848;3.272;2023-01-15T17:46:07;6.30;99.90
21035;DHT22;10676;50.848;3.272;2023-01-15T17:48:33;6.30;99.90
21035;DHT22;10676;50.848;3.272;2023-01-15T17:51:09;6.40;99.90
21035;DHT22;10676;50.848;3.272;2023-01-15T17:53:36;6.40;99.90
21035;DHT22;10676;50.848;3.272;2023-01-15T17:56:02;6.40;99.90
21035;DHT22;10676;50.848;3.272;2023-01-15T17:58:47;6.50;99.90
21035;DHT22;10676;50.848;3.272;2023-01-15T18:01:52;6.50;99.90
21035;DHT22;10676;50.848;3.272;2023-01-15T18:04:47;6.40;99.90
21035;DHT22;10676;50.848;3.272;2023-01-15T18:07:36;6.30;99.90
21035;DHT22;10676;50.848;3.272;2023-01-15T18:10:04;6.30;99.90
21035;DHT22;10676;50.848;3.272;2023-01-15T18:12:30;6.30;99.90
21035;DHT22;10676;50.848;3.272;2023-01-15T18:14:56;6.30;99.90
21035;DHT22;10676;50.848;3.272;2023-01-15T18:17:22;6.30;99.90
21035;DHT22;10676;50.848;3.272;2023-01-15T18:19:48;6.20;99.90
21035;DHT22;10676;50.848;3.272;2023-01-15T18:22:14;6.20;99.90
21035;DHT22;10676;50.848;3.272;2023-01-15T18:24:40;6.20;99.90
21035;DHT22;10676;50.848;3.272;2023-01-15T18:27:06;6.20;99.90
21035;DHT22;10676;50.848;3.272;2023-01-15T18:29:31;6.30;99.90
21035;DHT22;10676;50.848;3.272;2023-01-15T18:31:57;6.30;99.90
21035;DHT22;10676;50.848;3.272;2023-01-15T18:34:23;6.40;99.90
21035;DHT22;10676;50.848;3.272;2023-01-15T18:36:52;6.40;99.90
21035;DHT22;10676;50.848;3.272;2023-01-15T18:39:18;6.50;99.90